Thursday, September 20, 2018, 6:23 PM EDT
Back to Local

KMPO, Mt Pocono Pocono Mountains

Location: Pocono Summit, PA, United States Lat: 41.133
Local Time: 6:23 PM EDT (22:23 GMT) Lon: -75.383
Time Zone: US/Eastern Elev: 1915 ft

Show me the last for .
Show Decoded

2018-09-20 18:01 METAR KMPO 202201Z AUTO 13004KT 1/4SM FG VV001 16/16 A3025 RMK AO2 T01560156 =
2018-09-20 17:53 METAR KMPO 202153Z AUTO 13005KT 1/2SM FG VV002 16/16 A3024 RMK AO2 SLP242
                 T01560156 =
2018-09-20 16:53 METAR KMPO 202053Z AUTO 15005KT 1/4SM FG VV002 16/16 A3024 RMK AO2 SLP240
                 T01560156 53002 =
2018-09-20 16:37 METAR KMPO 202037Z AUTO 15004KT 1/2SM FG VV002 16/16 A3024 RMK AO2 T01560156 =
2018-09-20 16:02 METAR KMPO 202002Z AUTO 13006KT 1/4SM FG VV002 16/16 A3023 RMK AO2 T01560156 =
2018-09-20 15:53 METAR KMPO 201953Z AUTO 13007KT 1/2SM FG VV002 16/16 A3023 RMK AO2 SLP235
                 T01560156 =
2018-09-20 15:39 METAR KMPO 201939Z AUTO 16006KT 1/2SM FG VV002 16/16 A3023 RMK AO2 T01560156 =
2018-09-20 15:12 METAR KMPO 201912Z AUTO 14006KT 1/4SM FG VV001 16/16 A3023 RMK AO2 T01560156 =
2018-09-20 14:53 METAR KMPO 201853Z AUTO 13005KT 1/2SM FG VV002 16/16 A3024 RMK AO2 SLP237
                 T01560156 =
2018-09-20 14:48 METAR KMPO 201848Z AUTO 14006KT 1/4SM FG VV002 16/16 A3023 RMK AO2 =
2018-09-20 14:29 METAR KMPO 201829Z AUTO 15007KT 3/4SM BR VV002 16/16 A3024 RMK AO2 T01560156 =
2018-09-20 14:19 METAR KMPO 201819Z AUTO 12007KT 1 3/4SM BR OVC002 16/16 A3024 RMK AO2 VIS 1/2V5
                 T01560156 =
2018-09-20 14:01 METAR KMPO 201801Z AUTO 13005KT 5SM BR OVC002 16/16 A3025 RMK AO2 T01560156 =
2018-09-20 13:53 METAR KMPO 201753Z AUTO 13005KT 2 1/2SM BR OVC002 16/16 A3025 RMK AO2 VIS 1
                 3/4V4 SLP244 T01560156 10156 20139 58002 =
2018-09-20 13:43 METAR KMPO 201743Z AUTO 15005KT 3SM BR OVC002 16/16 A3026 RMK AO2 T01560156 =
2018-09-20 13:11 METAR KMPO 201711Z AUTO 12005KT 1 1/4SM BR OVC002 16/16 A3026 RMK AO2 T01560156
                 =
2018-09-20 13:04 METAR KMPO 201704Z AUTO 11005KT 2SM BR OVC002 16/16 A3026 RMK AO2 VIS 1 1/4V5
                 T01560156 =
2018-09-20 11:53 METAR KMPO 201553Z AUTO 12006KT 1/2SM FG VV002 15/15 A3026 RMK AO2 SLP245
                 T01500150 =
2018-09-20 11:27 METAR KMPO 201527Z AUTO 13004KT 1/2SM FG VV002 15/15 A3027 RMK AO2 T01500150 =
2018-09-20 10:53 METAR KMPO 201453Z AUTO 12005KT 1/4SM FG VV001 14/14 A3026 RMK AO2 SLP246
                 T01440144 53019 =
2018-09-20 09:53 METAR KMPO 201353Z AUTO 10004KT 1/4SM FG VV002 14/14 A3024 RMK AO2 SLP238
                 T01440144 =
2018-09-20 09:12 METAR KMPO 201312Z AUTO 13003KT 1/2SM FG VV002 14/14 A3023 RMK AO2 T01440144 =
2018-09-20 08:53 METAR KMPO 201253Z AUTO 00000KT 1/4SM FG VV002 14/14 A3022 RMK AO2 SLP231
                 T01390139 =
2018-09-20 08:30 METAR KMPO 201230Z AUTO 09004KT 1/2SM FG VV002 14/14 A3022 RMK AO2 T01390139 =
2018-09-20 08:19 METAR KMPO 201219Z AUTO 11003KT 1 3/4SM BR OVC002 14/14 A3021 RMK AO2 VIS 3/4V5
                 T01390139 =
2018-09-20 08:11 METAR KMPO 201211Z AUTO 09003KT 4SM BR OVC004 14/14 A3021 RMK AO2 CIG 002V005
                 T01440144 =
2018-09-20 07:53 METAR KMPO 201153Z AUTO 09003KT 10SM OVC005 14/14 A3020 RMK AO2 SLP225 T01440144
                 10144 20111 53023 =
2018-09-20 06:53 METAR KMPO 201053Z AUTO 11004KT 10SM OVC005 14/14 A3018 RMK AO2 SLP213 T01440144
                 =
2018-09-20 06:43 METAR KMPO 201043Z AUTO 08003KT 10SM OVC005 14/14 A3017 RMK AO2 T01440139 =
2018-09-20 06:04 METAR KMPO 201004Z AUTO 00000KT 10SM BKN008 12/12 A3016 RMK AO2 T01170117 =
2018-09-20 05:53 METAR KMPO 200953Z AUTO 00000KT 9SM SCT007 11/11 A3015 RMK AO2 SLP205 T01110111
                 =
2018-09-20 04:53 METAR KMPO 200853Z AUTO 00000KT 10SM CLR 12/12 A3013 RMK AO2 SLP197 T01170117
                 55001 =
2018-09-20 04:24 METAR KMPO 200824Z AUTO 00000KT 10SM FEW024 13/13 A3012 RMK AO2 T01280128 =
2018-09-20 03:53 METAR KMPO 200753Z AUTO 00000KT 10SM OVC023 13/13 A3013 RMK AO2 SLP196 T01330133
                 =
2018-09-20 02:53 METAR KMPO 200653Z AUTO 33004KT 10SM FEW017 OVC023 14/13 A3013 RMK AO2 SLP195
                 T01390128 =
2018-09-20 01:53 METAR KMPO 200553Z AUTO 36006KT 10SM BKN025 13/13 A3013 RMK AO2 SLP198 T01330128
                 10172 20133 51007 =
2018-09-20 01:02 METAR KMPO 200502Z AUTO 36007KT 10SM BKN025 14/13 A3013 RMK AO2 T01390133 =
2018-09-20 00:53 METAR KMPO 200453Z AUTO 35007KT 10SM SCT025 14/13 A3013 RMK AO2 SLP196 T01440133
                 402390139 =
2018-09-19 23:53 METAR KMPO 200353Z AUTO 36008KT 10SM CLR 15/13 A3012 RMK AO2 SLP191 T01500133 =
2018-09-19 22:53 METAR KMPO 200253Z AUTO 35013KT 10SM CLR 16/14 A3011 RMK AO2 SLP191 T01560139
                 51019 =
2018-09-19 21:53 METAR KMPO 200153Z AUTO 34010KT 10SM CLR 17/14 A3009 RMK AO2 SLP185 T01670144 =
2018-09-19 20:53 METAR KMPO 200053Z AUTO 32009KT 10SM CLR 17/15 A3009 RMK AO2 SLP183 T01720150 =
2018-09-19 19:53 METAR KMPO 192353Z AUTO 30005KT 10SM CLR 17/16 A3005 RMK AO2 SLP171 T01670156
                 10239 20167 53013 =
2018-09-19 18:53 METAR KMPO 192253Z AUTO 30005KT 10SM CLR 19/15 A3004 RMK AO2 SLP165 T01940150 =

Support USWX by starting your Amazon purchase here.